Time,TemperatureF,DewpointF,PressureIn,WindDirection,WindDirectionDegrees,WindSpeedMPH,WindSpeedGustMPH,Humidity,HourlyPrecipIn,Conditions,Clouds,dailyrainin,SolarRadiationWatts/m^2,SoftwareType,DateUTC
2013-03-15 00:00:00,64.8,64.8,30.05,NNW,348,1.0,2.0,100,0.00,,,0.00,0,Wunderground v.1.15,2013-03-15 10:00:00,
2013-03-15 00:10:00,64.4,64.4,30.05,NNW,348,2.0,2.0,100,0.00,,,0.00,0,Wunderground v.1.15,2013-03-15 10:10:00,
2013-03-15 00:15:00,64.4,64.4,30.04,NNW,348,2.0,2.0,100,0.00,,,0.00,0,Wunderground v.1.15,2013-03-15 10:15:00,
2013-03-15 00:25:00,64.0,64.0,30.04,NNW,348,1.0,4.0,100,0.00,,,0.00,0,Wunderground v.1.15,2013-03-15 10:25:00,
2013-03-15 00:30:00,63.8,63.8,30.05,NNW,348,3.0,3.0,100,0.00,,,0.00,0,Wunderground v.1.15,2013-03-15 10:30:00,
2013-03-15 00:35:00,63.7,63.7,30.04,NNW,348,3.0,3.0,100,0.00,,,0.00,0,Wunderground v.1.15,2013-03-15 10:35:00,
2013-03-15 00:40:00,63.7,63.7,30.05,NNW,348,2.0,3.0,100,0.00,,,0.00,0,Wunderground v.1.15,2013-03-15 10:40:00,
2013-03-15 00:45:00,63.6,63.6,30.04,NNW,348,2.0,3.0,100,0.00,,,0.00,0,Wunderground v.1.15,2013-03-15 10:45:00,
2013-03-15 00:55:00,63.2,63.2,30.04,NNW,348,3.0,3.0,100,0.00,,,0.00,0,Wunderground v.1.15,2013-03-15 10:55:00,
2013-03-15 01:00:00,63.0,63.0,30.02,NNW,348,3.0,3.0,100,0.00,,,0.00,0,Wunderground v.1.15,2013-03-15 11:00:00,
2013-03-15 01:10:00,62.9,62.9,30.03,NNW,348,3.0,3.0,100,0.00,,,0.00,0,Wunderground v.1.15,2013-03-15 11:10:00,
2013-03-15 01:15:00,63.0,63.0,30.02,NNW,348,2.0,3.0,100,0.00,,,0.00,0,Wunderground v.1.15,2013-03-15 11:15:00,
2013-03-15 01:20:00,63.2,63.2,30.02,NNW,348,2.0,2.0,100,0.00,,,0.00,0,Wunderground v.1.15,2013-03-15 11:20:00,
2013-03-15 01:25:00,63.4,63.4,30.02,NNW,348,2.0,2.0,100,0.00,,,0.00,0,Wunderground v.1.15,2013-03-15 11:25:00,
2013-03-15 01:30:00,63.5,63.5,30.02,NNW,348,1.0,1.0,100,0.00,,,0.00,0,Wunderground v.1.15,2013-03-15 11:30:00,
2013-03-15 01:35:00,63.6,63.6,30.01,NNW,348,0.0,1.0,100,0.00,,,0.00,0,Wunderground v.1.15,2013-03-15 11:35:00,
2013-03-15 01:40:00,63.6,63.6,30.01,NNW,348,0.0,0.0,100,0.00,,,0.00,0,Wunderground v.1.15,2013-03-15 11:40:00,
2013-03-15 01:45:00,63.6,63.6,30.01,NNW,348,1.0,2.0,100,0.00,,,0.00,0,Wunderground v.1.15,2013-03-15 11:45:00,
2013-03-15 01:50:00,63.7,63.7,30.02,NNW,348,2.0,2.0,100,0.00,,,0.00,0,Wunderground v.1.15,2013-03-15 11:50:00,
2013-03-15 02:00:00,63.9,63.9,30.01,NNW,348,3.0,3.0,100,0.00,,,0.00,0,Wunderground v.1.15,2013-03-15 12:00:00,
2013-03-15 02:10:00,64.1,64.1,30.01,NNW,348,3.0,3.0,100,0.00,,,0.00,0,Wunderground v.1.15,2013-03-15 12:10:00,
2013-03-15 02:15:00,64.3,64.3,30.01,NNW,348,2.0,3.0,100,0.00,,,0.00,0,Wunderground v.1.15,2013-03-15 12:15:00,
2013-03-15 02:20:00,64.4,64.4,30.01,NNW,348,2.0,2.0,100,0.00,,,0.00,0,Wunderground v.1.15,2013-03-15 12:20:00,
2013-03-15 02:25:00,64.6,64.6,30.00,NNW,348,2.0,2.0,100,0.00,,,0.00,0,Wunderground v.1.15,2013-03-15 12:25:00,
2013-03-15 02:30:00,64.8,64.8,30.00,NNW,348,2.0,2.0,100,0.00,,,0.00,0,Wunderground v.1.15,2013-03-15 12:30:00,
2013-03-15 02:35:00,64.9,64.9,30.00,NNW,348,2.0,3.0,100,0.00,,,0.00,0,Wunderground v.1.15,2013-03-15 12:35:00,
2013-03-15 02:40:00,64.8,64.8,30.00,NNW,348,3.0,3.0,100,0.00,,,0.00,0,Wunderground v.1.15,2013-03-15 12:40:00,
2013-03-15 02:45:00,64.8,64.8,29.99,NNW,348,3.0,4.0,100,0.00,,,0.00,0,Wunderground v.1.15,2013-03-15 12:45:00,
2013-03-15 02:50:00,64.6,64.6,29.99,NNW,348,3.0,3.0,100,0.00,,,0.00,0,Wunderground v.1.15,2013-03-15 12:50:00,
2013-03-15 02:55:00,64.4,64.4,29.99,NNW,348,3.0,3.0,100,0.00,,,0.00,0,Wunderground v.1.15,2013-03-15 12:55:00,
2013-03-15 03:00:00,64.1,64.1,29.99,NNW,348,2.0,3.0,100,0.00,,,0.00,0,Wunderground v.1.15,2013-03-15 13:00:00,
2013-03-15 03:10:00,64.0,64.0,29.99,NNW,348,2.0,2.0,100,0.00,,,0.00,0,Wunderground v.1.15,2013-03-15 13:10:00,
2013-03-15 03:15:00,64.0,64.0,29.99,NNW,348,2.0,2.0,100,0.00,,,0.00,0,Wunderground v.1.15,2013-03-15 13:15:00,
2013-03-15 03:20:00,64.1,64.1,29.99,NNW,348,1.0,1.0,100,0.00,,,0.00,0,Wunderground v.1.15,2013-03-15 13:20:00,
2013-03-15 03:25:00,64.2,64.2,29.99,NNW,348,1.0,2.0,100,0.00,,,0.00,0,Wunderground v.1.15,2013-03-15 13:25:00,
2013-03-15 03:30:00,64.4,64.4,29.99,NNW,348,3.0,3.0,100,0.00,,,0.00,0,Wunderground v.1.15,2013-03-15 13:30:00,
2013-03-15 03:35:00,64.6,64.6,29.99,NNW,348,3.0,3.0,100,0.00,,,0.00,0,Wunderground v.1.15,2013-03-15 13:35:00,
2013-03-15 03:40:00,64.6,64.6,29.99,NNW,348,2.0,2.0,100,0.00,,,0.00,0,Wunderground v.1.15,2013-03-15 13:40:00,
2013-03-15 03:50:00,65.1,65.1,29.99,NNW,348,2.0,3.0,100,0.00,,,0.00,0,Wunderground v.1.15,2013-03-15 13:50:00,
2013-03-15 03:55:00,65.1,65.1,29.99,NNW,348,3.0,3.0,100,0.00,,,0.00,0,Wunderground v.1.15,2013-03-15 13:55:00,
2013-03-15 04:00:00,65.3,65.3,29.99,NNW,348,2.0,3.0,100,0.00,,,0.00,0,Wunderground v.1.15,2013-03-15 14:00:00,
2013-03-15 04:10:00,65.5,65.5,29.99,NNW,348,2.0,2.0,100,0.00,,,0.00,0,Wunderground v.1.15,2013-03-15 14:10:00,
2013-03-15 04:15:00,65.6,65.6,29.99,NNW,348,1.0,2.0,100,0.00,,,0.00,0,Wunderground v.1.15,2013-03-15 14:15:00,
2013-03-15 04:20:00,65.8,65.8,29.98,NNW,348,0.0,0.0,100,0.00,,,0.00,0,Wunderground v.1.15,2013-03-15 14:20:00,
2013-03-15 04:25:00,65.9,65.9,29.98,NNW,348,0.0,0.0,100,0.00,,,0.00,0,Wunderground v.1.15,2013-03-15 14:25:00,
2013-03-15 04:30:00,65.8,65.8,29.99,NNW,348,0.0,0.0,100,0.00,,,0.00,0,Wunderground v.1.15,2013-03-15 14:30:00,
2013-03-15 04:35:00,65.8,65.8,29.98,NNW,348,1.0,1.0,100,0.00,,,0.00,0,Wunderground v.1.15,2013-03-15 14:35:00,
2013-03-15 04:40:00,65.8,65.8,29.99,NNW,348,1.0,1.0,100,0.00,,,0.00,0,Wunderground v.1.15,2013-03-15 14:40:00,
2013-03-15 04:45:00,66.0,66.0,29.99,NNW,348,1.0,2.0,100,0.00,,,0.00,0,Wunderground v.1.15,2013-03-15 14:45:00,
2013-03-15 04:50:00,66.1,66.1,29.99,NNW,348,1.0,1.0,100,0.00,,,0.00,0,Wunderground v.1.15,2013-03-15 14:50:00,
2013-03-15 04:55:00,66.2,66.2,29.99,NNW,348,2.0,2.0,100,0.00,,,0.00,0,Wunderground v.1.15,2013-03-15 14:55:00,
2013-03-15 05:00:00,66.5,66.5,29.99,NNW,348,2.0,2.0,100,0.00,,,0.00,0,Wunderground v.1.15,2013-03-15 15:00:00,
2013-03-15 05:10:00,66.7,66.7,29.99,NNW,348,1.0,1.0,100,0.00,,,0.00,0,Wunderground v.1.15,2013-03-15 15:10:00,
2013-03-15 05:15:00,66.6,66.6,29.99,NNW,348,1.0,1.0,100,0.00,,,0.00,0,Wunderground v.1.15,2013-03-15 15:15:00,
2013-03-15 05:20:00,66.6,66.6,29.99,NNW,348,1.0,1.0,100,0.00,,,0.00,0,Wunderground v.1.15,2013-03-15 15:20:00,
2013-03-15 05:25:00,66.6,66.6,29.99,NNW,348,0.0,1.0,100,0.00,,,0.00,0,Wunderground v.1.15,2013-03-15 15:25:00,
2013-03-15 05:30:00,66.4,66.4,29.99,NNW,348,0.0,0.0,100,0.00,,,0.00,0,Wunderground v.1.15,2013-03-15 15:30:00,
2013-03-15 05:40:00,66.0,66.0,29.99,NNW,348,0.0,0.0,100,0.00,,,0.00,0,Wunderground v.1.15,2013-03-15 15:40:00,
2013-03-15 05:45:00,65.7,65.7,29.99,NNW,348,0.0,0.0,100,0.00,,,0.00,0,Wunderground v.1.15,2013-03-15 15:45:00,
2013-03-15 05:50:00,65.5,65.5,29.99,NNW,348,1.0,2.0,100,0.00,,,0.00,0,Wunderground v.1.15,2013-03-15 15:50:00,
2013-03-15 05:55:00,65.2,65.2,29.99,NNW,348,2.0,3.0,100,0.00,,,0.00,0,Wunderground v.1.15,2013-03-15 15:55:00,
2013-03-15 06:00:00,65.1,65.1,29.99,NNW,348,3.0,3.0,100,0.00,,,0.00,0,Wunderground v.1.15,2013-03-15 16:00:00,
2013-03-15 06:10:00,65.1,65.1,29.99,NNW,348,2.0,2.0,100,0.00,,,0.00,0,Wunderground v.1.15,2013-03-15 16:10:00,
2013-03-15 06:15:00,65.1,65.1,30.00,NNW,348,1.0,2.0,100,0.00,,,0.00,0,Wunderground v.1.15,2013-03-15 16:15:00,
2013-03-15 06:20:00,65.1,65.1,30.00,NNW,348,1.0,2.0,100,0.00,,,0.00,0,Wunderground v.1.15,2013-03-15 16:20:00,
2013-03-15 06:25:00,65.1,65.1,30.00,NNW,348,2.0,2.0,100,0.00,,,0.00,0,Wunderground v.1.15,2013-03-15 16:25:00,
2013-03-15 06:30:00,65.1,65.1,30.00,NNW,348,2.0,2.0,100,0.00,,,0.00,0,Wunderground v.1.15,2013-03-15 16:30:00,
2013-03-15 06:40:00,64.9,64.9,30.01,NNW,348,2.0,2.0,100,0.00,,,0.00,7,Wunderground v.1.15,2013-03-15 16:40:00,
2013-03-15 06:45:00,64.8,64.8,30.00,NNW,348,2.0,2.0,100,0.00,,,0.00,11,Wunderground v.1.15,2013-03-15 16:45:00,
2013-03-15 06:50:00,64.8,64.8,30.01,NNW,348,2.0,3.0,100,0.00,,,0.00,16,Wunderground v.1.15,2013-03-15 16:50:00,
2013-03-15 06:55:00,64.8,64.8,30.01,NNW,348,3.0,4.0,100,0.00,,,0.00,19,Wunderground v.1.15,2013-03-15 16:55:00,
2013-03-15 07:00:00,64.8,64.8,30.01,NNW,348,2.0,2.0,100,0.00,,,0.00,23,Wunderground v.1.15,2013-03-15 17:00:00,
2013-03-15 07:10:00,64.9,64.9,30.01,NNW,348,3.0,3.0,100,0.00,,,0.00,42,Wunderground v.1.15,2013-03-15 17:10:00,
2013-03-15 07:15:00,64.9,64.9,30.01,NNW,348,2.0,3.0,100,0.00,,,0.00,51,Wunderground v.1.15,2013-03-15 17:15:00,
2013-03-15 07:20:00,64.8,64.8,30.01,North,349,2.0,3.0,100,0.00,,,0.00,63,Wunderground v.1.15,2013-03-15 17:20:00,
2013-03-15 07:25:00,65.0,65.0,30.01,North,349,2.0,3.0,100,0.00,,,0.00,65,Wunderground v.1.15,2013-03-15 17:25:00,
2013-03-15 07:30:00,65.3,65.3,30.01,North,349,3.0,3.0,100,0.00,,,0.00,90,Wunderground v.1.15,2013-03-15 17:30:00,
2013-03-15 07:35:00,65.5,65.5,30.02,North,349,2.0,3.0,100,0.00,,,0.00,156,Wunderground v.1.15,2013-03-15 17:35:00,
2013-03-15 07:40:00,65.9,65.9,30.02,North,349,1.0,1.0,100,0.00,,,0.00,158,Wunderground v.1.15,2013-03-15 17:40:00,
2013-03-15 07:45:00,66.2,66.2,30.02,North,349,2.0,4.0,100,0.00,,,0.00,70,Wunderground v.1.15,2013-03-15 17:45:00,
2013-03-15 07:50:00,66.4,66.4,30.02,North,349,3.0,4.0,100,0.00,,,0.00,44,Wunderground v.1.15,2013-03-15 17:50:00,
2013-03-15 08:00:00,66.8,66.8,30.02,North,349,1.0,3.0,100,0.00,,,0.00,77,Wunderground v.1.15,2013-03-15 18:00:00,
2013-03-15 08:10:00,67.0,67.0,30.03,North,349,1.0,2.0,100,0.00,,,0.00,74,Wunderground v.1.15,2013-03-15 18:10:00,
2013-03-15 08:15:00,67.4,67.4,30.03,North,349,1.0,2.0,100,0.00,,,0.00,76,Wunderground v.1.15,2013-03-15 18:15:00,
2013-03-15 08:20:00,67.4,67.1,30.02,North,349,2.0,2.0,99,0.00,,,0.00,98,Wunderground v.1.15,2013-03-15 18:20:00,
2013-03-15 08:25:00,67.7,67.4,30.02,North,349,1.0,2.0,99,0.00,,,0.00,139,Wunderground v.1.15,2013-03-15 18:25:00,
2013-03-15 08:30:00,68.0,67.7,30.03,North,349,0.0,0.0,99,0.00,,,0.00,130,Wunderground v.1.15,2013-03-15 18:30:00,
2013-03-15 08:35:00,68.2,67.9,30.03,North,349,0.0,0.0,99,0.00,,,0.00,97,Wunderground v.1.15,2013-03-15 18:35:00,
2013-03-15 08:40:00,68.5,67.9,30.03,North,349,0.0,0.0,98,0.00,,,0.00,97,Wunderground v.1.15,2013-03-15 18:40:00,
2013-03-15 08:45:00,68.9,68.3,30.02,North,349,0.0,0.0,98,0.00,,,0.00,63,Wunderground v.1.15,2013-03-15 18:45:00,
2013-03-15 08:50:00,69.0,68.4,30.03,North,349,0.0,0.0,98,0.00,,,0.00,105,Wunderground v.1.15,2013-03-15 18:50:00,
2013-03-15 09:00:00,69.2,68.6,30.03,North,349,1.0,1.0,98,0.00,,,0.00,107,Wunderground v.1.15,2013-03-15 19:00:00,
2013-03-15 09:10:00,69.4,69.1,30.03,North,349,0.0,1.0,99,0.00,,,0.00,93,Wunderground v.1.15,2013-03-15 19:10:00,
2013-03-15 09:20:00,69.4,68.8,30.03,North,349,2.0,2.0,98,0.08,,,0.02,127,Wunderground v.1.15,2013-03-15 19:20:00,
2013-03-15 09:25:00,69.3,68.7,30.03,North,349,1.0,2.0,98,0.05,,,0.02,91,Wunderground v.1.15,2013-03-15 19:25:00,
2013-03-15 09:30:00,69.2,68.6,30.03,North,349,0.0,0.0,98,3.22,,,0.05,93,Wunderground v.1.15,2013-03-15 19:30:00,
2013-03-15 09:35:00,69.1,68.5,30.03,North,349,0.0,2.0,98,0.24,,,0.07,79,Wunderground v.1.15,2013-03-15 19:35:00,
2013-03-15 09:45:00,69.0,68.7,30.02,North,349,1.0,2.0,99,0.09,,,0.08,127,Wunderground v.1.15,2013-03-15 19:45:00,
2013-03-15 09:55:00,69.2,69.2,30.03,North,349,0.0,0.0,100,0.04,,,0.08,225,Wunderground v.1.15,2013-03-15 19:55:00,
2013-03-15 10:00:00,69.4,69.4,30.03,North,349,0.0,0.0,100,0.00,,,0.08,334,Wunderground v.1.15,2013-03-15 20:00:00,
2013-03-15 10:10:00,69.6,69.6,30.03,North,349,0.0,0.0,100,0.00,,,0.08,86,Wunderground v.1.15,2013-03-15 20:10:00,
2013-03-15 10:15:00,69.9,69.9,30.02,SSW,201,2.0,4.0,100,0.00,,,0.08,167,Wunderground v.1.15,2013-03-15 20:15:00,
2013-03-15 10:20:00,70.2,70.2,30.02,SSW,201,2.0,2.0,100,0.00,,,0.08,125,Wunderground v.1.15,2013-03-15 20:20:00,
2013-03-15 10:25:00,70.4,70.4,30.02,SSW,200,1.0,2.0,100,0.26,,,0.11,139,Wunderground v.1.15,2013-03-15 20:25:00,
2013-03-15 10:35:00,70.4,70.4,30.02,SSE,161,2.0,2.0,100,0.05,,,0.11,304,Wunderground v.1.15,2013-03-15 20:35:00,
2013-03-15 10:40:00,70.6,70.6,30.02,SSE,161,3.0,6.0,100,0.00,,,0.11,227,Wunderground v.1.15,2013-03-15 20:40:00,
2013-03-15 10:45:00,70.6,70.3,30.02,South,191,4.0,9.0,99,0.00,,,0.11,278,Wunderground v.1.15,2013-03-15 20:45:00,
2013-03-15 10:50:00,70.8,70.5,30.02,SSW,195,4.0,6.0,99,0.00,,,0.11,348,Wunderground v.1.15,2013-03-15 20:50:00,
2013-03-15 10:55:00,71.2,70.6,30.02,SSW,206,4.0,6.0,98,0.00,,,0.11,545,Wunderground v.1.15,2013-03-15 20:55:00,
2013-03-15 11:00:00,71.6,71.0,30.02,SW,219,6.0,6.0,98,0.00,,,0.11,255,Wunderground v.1.15,2013-03-15 21:00:00,
2013-03-15 11:10:00,71.6,71.3,30.02,South,182,5.0,5.0,99,0.00,,,0.11,188,Wunderground v.1.15,2013-03-15 21:10:00,
2013-03-15 11:15:00,71.2,70.6,30.02,SSE,161,7.0,7.0,98,0.00,,,0.12,429,Wunderground v.1.15,2013-03-15 21:15:00,
2013-03-15 11:20:00,71.4,71.1,30.02,SSW,206,7.0,7.0,99,0.00,,,0.12,341,Wunderground v.1.15,2013-03-15 21:20:00,
2013-03-15 11:25:00,71.6,71.0,30.01,South,171,5.0,7.0,98,0.00,,,0.12,229,Wunderground v.1.15,2013-03-15 21:25:00,
2013-03-15 11:30:00,71.4,70.8,30.01,SSW,200,6.0,7.0,98,0.00,,,0.12,378,Wunderground v.1.15,2013-03-15 21:30:00,
2013-03-15 11:35:00,71.1,70.5,30.01,SSW,213,8.0,13.0,98,0.00,,,0.12,338,Wunderground v.1.15,2013-03-15 21:35:00,
2013-03-15 11:45:00,71.2,70.9,30.01,South,171,8.0,10.0,99,0.00,,,0.12,439,Wunderground v.1.15,2013-03-15 21:45:00,
2013-03-15 11:50:00,71.0,70.1,30.01,SW,216,7.0,9.0,97,0.00,,,0.12,680,Wunderground v.1.15,2013-03-15 21:50:00,
2013-03-15 11:55:00,71.0,69.8,30.01,SSW,194,9.0,9.0,96,0.00,,,0.12,457,Wunderground v.1.15,2013-03-15 21:55:00,
2013-03-15 12:00:00,71.1,69.9,30.00,SW,214,8.0,10.0,96,0.00,,,0.12,260,Wunderground v.1.15,2013-03-15 22:00:00,
2013-03-15 12:10:00,71.3,70.4,30.00,SSW,209,5.0,13.0,97,0.00,,,0.12,176,Wunderground v.1.15,2013-03-15 22:10:00,
2013-03-15 12:15:00,70.6,69.7,30.00,SW,216,5.0,13.0,97,0.00,,,0.12,332,Wunderground v.1.15,2013-03-15 22:15:00,
2013-03-15 12:20:00,70.4,69.2,30.00,SW,216,7.0,7.0,96,0.00,,,0.12,308,Wunderground v.1.15,2013-03-15 22:20:00,
2013-03-15 12:25:00,70.4,69.2,29.99,South,175,6.0,7.0,96,0.00,,,0.12,183,Wunderground v.1.15,2013-03-15 22:25:00,
2013-03-15 12:30:00,70.0,68.8,30.00,South,190,6.0,6.0,96,0.00,,,0.12,79,Wunderground v.1.15,2013-03-15 22:30:00,
2013-03-15 12:35:00,69.9,69.0,29.99,South,187,5.0,6.0,97,0.00,,,0.12,84,Wunderground v.1.15,2013-03-15 22:35:00,
2013-03-15 12:40:00,69.6,68.4,29.98,SSW,206,4.0,5.0,96,0.00,,,0.12,77,Wunderground v.1.15,2013-03-15 22:40:00,
2013-03-15 12:45:00,69.5,68.6,29.98,SSE,161,4.0,5.0,97,0.00,,,0.12,84,Wunderground v.1.15,2013-03-15 22:45:00,
2013-03-15 12:50:00,69.4,68.8,29.98,SSE,161,3.0,3.0,98,0.00,,,0.12,111,Wunderground v.1.15,2013-03-15 22:50:00,
2013-03-15 13:00:00,69.5,69.2,29.97,SSE,161,3.0,3.0,99,0.00,,,0.12,95,Wunderground v.1.15,2013-03-15 23:00:00,
2013-03-15 13:10:00,69.4,69.1,29.97,SSE,161,1.0,1.0,99,0.00,,,0.12,72,Wunderground v.1.15,2013-03-15 23:10:00,
2013-03-15 13:15:00,69.4,69.1,29.96,SSE,161,1.0,1.0,99,0.00,,,0.12,58,Wunderground v.1.15,2013-03-15 23:15:00,
2013-03-15 13:20:00,69.4,69.4,29.96,SSE,155,0.0,4.0,100,0.00,,,0.12,65,Wunderground v.1.15,2013-03-15 23:20:00,
2013-03-15 13:25:00,69.5,69.5,29.95,NE,44,1.0,5.0,100,0.00,,,0.12,84,Wunderground v.1.15,2013-03-15 23:25:00,
2013-03-15 13:30:00,69.4,69.4,29.95,North,11,4.0,6.0,100,0.00,,,0.12,79,Wunderground v.1.15,2013-03-15 23:30:00,
2013-03-15 13:35:00,69.3,69.3,29.95,NNW,344,6.0,10.0,100,0.00,,,0.12,207,Wunderground v.1.15,2013-03-15 23:35:00,
2013-03-15 13:40:00,69.1,69.1,29.95,NNW,338,7.0,7.0,100,0.00,,,0.12,278,Wunderground v.1.15,2013-03-15 23:40:00,
2013-03-15 13:45:00,69.6,69.6,29.94,North,9,8.0,10.0,100,0.00,,,0.12,469,Wunderground v.1.15,2013-03-15 23:45:00,
2013-03-15 13:50:00,70.0,69.7,29.94,NNW,344,8.0,8.0,99,0.00,,,0.12,497,Wunderground v.1.15,2013-03-15 23:50:00,
2013-03-15 13:55:00,70.4,69.8,29.94,NW,313,7.0,8.0,98,0.00,,,0.12,387,Wunderground v.1.15,2013-03-15 23:55:00,
2013-03-15 14:00:00,70.9,70.0,29.94,NNW,336,6.0,11.0,97,0.00,,,0.12,417,Wunderground v.1.15,2013-03-16 00:00:00,
2013-03-15 14:10:00,71.7,70.2,29.93,NNW,331,7.0,12.0,95,0.00,,,0.12,374,Wunderground v.1.15,2013-03-16 00:10:00,
2013-03-15 14:15:00,71.8,70.3,29.93,NNW,337,6.0,12.0,95,0.00,,,0.12,209,Wunderground v.1.15,2013-03-16 00:15:00,
2013-03-15 14:20:00,72.1,70.6,29.93,SSW,192,4.0,4.0,95,0.00,,,0.12,204,Wunderground v.1.15,2013-03-16 00:20:00,
2013-03-15 14:25:00,72.3,70.8,29.93,SSW,205,3.0,6.0,95,0.00,,,0.12,176,Wunderground v.1.15,2013-03-16 00:25:00,
2013-03-15 14:30:00,72.5,71.0,29.92,SSE,167,3.0,5.0,95,0.00,,,0.12,216,Wunderground v.1.15,2013-03-16 00:30:00,
2013-03-15 14:35:00,72.6,71.1,29.92,SSE,166,4.0,5.0,95,0.00,,,0.12,267,Wunderground v.1.15,2013-03-16 00:35:00,
2013-03-15 14:40:00,72.9,71.4,29.92,SE,141,3.0,3.0,95,0.00,,,0.12,283,Wunderground v.1.15,2013-03-16 00:40:00,
2013-03-15 14:45:00,73.0,71.5,29.92,North,5,2.0,4.0,95,0.00,,,0.12,371,Wunderground v.1.15,2013-03-16 00:45:00,
2013-03-15 14:50:00,72.8,71.0,29.91,North,360,4.0,6.0,94,0.00,,,0.12,285,Wunderground v.1.15,2013-03-16 00:50:00,
2013-03-15 14:55:00,72.7,70.9,29.91,North,5,6.0,6.0,94,0.00,,,0.12,619,Wunderground v.1.15,2013-03-16 00:55:00,
2013-03-15 15:00:00,73.1,71.3,29.91,North,5,6.0,6.0,94,0.00,,,0.12,889,Wunderground v.1.15,2013-03-16 01:00:00,
2013-03-15 15:10:00,73.4,71.3,29.90,North,355,8.0,8.0,93,0.00,,,0.12,373,Wunderground v.1.15,2013-03-16 01:10:00,
2013-03-15 15:15:00,73.5,71.0,29.90,North,5,7.0,14.0,92,0.00,,,0.12,905,Wunderground v.1.15,2013-03-16 01:15:00,
2013-03-15 15:25:00,74.1,71.6,29.89,NNW,338,9.0,13.0,92,0.00,,,0.12,809,Wunderground v.1.15,2013-03-16 01:25:00,
2013-03-15 15:30:00,74.1,71.3,29.89,North,5,9.0,10.0,91,0.00,,,0.12,329,Wunderground v.1.15,2013-03-16 01:30:00,
2013-03-15 15:35:00,74.2,71.4,29.89,NNE,24,8.0,10.0,91,0.00,,,0.12,329,Wunderground v.1.15,2013-03-16 01:35:00,
2013-03-15 15:40:00,74.2,71.1,29.90,North,5,8.0,8.0,90,0.00,,,0.12,285,Wunderground v.1.15,2013-03-16 01:40:00,
2013-03-15 15:50:00,74.4,71.6,29.89,NNE,12,7.0,10.0,91,0.00,,,0.12,782,Wunderground v.1.15,2013-03-16 01:50:00,
2013-03-15 15:55:00,74.8,71.7,29.89,NNW,346,8.0,10.0,90,0.00,,,0.12,784,Wunderground v.1.15,2013-03-16 01:55:00,
2013-03-15 16:00:00,75.2,72.1,29.89,NNE,13,6.0,7.0,90,0.00,,,0.12,652,Wunderground v.1.15,2013-03-16 02:00:00,
2013-03-15 16:10:00,75.2,71.7,29.89,North,355,5.0,5.0,89,0.00,,,0.12,244,Wunderground v.1.15,2013-03-16 02:10:00,
2013-03-15 16:15:00,75.3,71.8,29.89,NNW,344,5.0,10.0,89,0.00,,,0.12,292,Wunderground v.1.15,2013-03-16 02:15:00,
2013-03-15 16:20:00,75.3,71.8,29.89,NNW,342,6.0,9.0,89,0.00,,,0.12,204,Wunderground v.1.15,2013-03-16 02:20:00,
2013-03-15 16:25:00,75.2,71.7,29.89,NNW,342,7.0,9.0,89,0.00,,,0.12,183,Wunderground v.1.15,2013-03-16 02:25:00,
2013-03-15 16:30:00,75.3,71.8,29.89,NNE,27,5.0,5.0,89,0.00,,,0.12,160,Wunderground v.1.15,2013-03-16 02:30:00,
2013-03-15 16:40:00,75.2,71.4,29.90,South,174,4.0,4.0,88,0.00,,,0.12,142,Wunderground v.1.15,2013-03-16 02:40:00,
2013-03-15 16:45:00,75.3,71.5,29.90,SE,137,3.0,5.0,88,0.00,,,0.12,394,Wunderground v.1.15,2013-03-16 02:45:00,
2013-03-15 16:50:00,75.5,71.4,29.90,SE,137,2.0,3.0,87,0.00,,,0.12,478,Wunderground v.1.15,2013-03-16 02:50:00,
2013-03-15 16:55:00,75.8,71.3,29.90,SE,136,2.0,4.0,86,0.00,,,0.12,104,Wunderground v.1.15,2013-03-16 02:55:00,
2013-03-15 17:00:00,75.9,71.4,29.90,SE,136,2.0,4.0,86,0.00,,,0.12,336,Wunderground v.1.15,2013-03-16 03:00:00,
2013-03-15 17:10:00,76.3,71.8,29.90,SE,136,2.0,5.0,86,0.00,,,0.12,297,Wunderground v.1.15,2013-03-16 03:10:00,
2013-03-15 17:15:00,76.4,71.6,29.90,NNE,19,3.0,5.0,85,0.00,,,0.12,264,Wunderground v.1.15,2013-03-16 03:15:00,
2013-03-15 17:20:00,76.3,71.8,29.90,NNE,13,4.0,5.0,86,0.00,,,0.12,234,Wunderground v.1.15,2013-03-16 03:20:00,
2013-03-15 17:25:00,76.3,71.8,29.90,North,5,4.0,5.0,86,0.00,,,0.12,211,Wunderground v.1.15,2013-03-16 03:25:00,
2013-03-15 17:30:00,76.2,72.0,29.90,NE,36,4.0,6.0,87,0.00,,,0.12,178,Wunderground v.1.15,2013-03-16 03:30:00,
2013-03-15 17:35:00,75.4,71.6,29.91,NE,40,5.0,11.0,88,0.00,,,0.12,156,Wunderground v.1.15,2013-03-16 03:35:00,
2013-03-15 17:40:00,74.3,71.5,29.91,NNE,21,9.0,14.0,91,0.00,,,0.12,58,Wunderground v.1.15,2013-03-16 03:40:00,
2013-03-15 17:50:00,72.8,70.7,29.92,NNE,13,8.0,8.0,93,0.00,,,0.12,93,Wunderground v.1.15,2013-03-16 03:50:00,
2013-03-15 17:55:00,72.3,70.5,29.92,NNE,19,8.0,8.0,94,0.00,,,0.12,40,Wunderground v.1.15,2013-03-16 03:55:00,
2013-03-15 18:00:00,72.0,70.2,29.92,NNE,23,9.0,9.0,94,0.00,,,0.12,40,Wunderground v.1.15,2013-03-16 04:00:00,
2013-03-15 18:05:00,71.8,70.0,29.92,NNE,15,8.0,11.0,94,0.00,,,0.12,32,Wunderground v.1.15,2013-03-16 04:05:00,
2013-03-15 18:10:00,71.6,69.8,29.92,North,11,7.0,8.0,94,0.00,,,0.12,21,Wunderground v.1.15,2013-03-16 04:10:00,
2013-03-15 18:15:00,71.3,69.8,29.93,North,5,8.0,8.0,95,0.00,,,0.12,14,Wunderground v.1.15,2013-03-16 04:15:00,
2013-03-15 18:20:00,71.1,69.6,29.93,NNE,12,8.0,8.0,95,0.00,,,0.12,7,Wunderground v.1.15,2013-03-16 04:20:00,
2013-03-15 18:25:00,70.9,69.4,29.93,North,5,8.0,8.0,95,0.00,,,0.12,0,Wunderground v.1.15,2013-03-16 04:25:00,
2013-03-15 18:30:00,70.8,69.3,29.93,NNE,17,8.0,12.0,95,0.00,,,0.12,0,Wunderground v.1.15,2013-03-16 04:30:00,
2013-03-15 18:35:00,70.7,69.5,29.93,North,9,8.0,12.0,96,0.00,,,0.12,0,Wunderground v.1.15,2013-03-16 04:35:00,
2013-03-15 18:40:00,70.5,69.3,29.94,North,355,8.0,8.0,96,0.00,,,0.12,0,Wunderground v.1.15,2013-03-16 04:40:00,
2013-03-15 18:45:00,70.5,69.3,29.94,NNE,14,7.0,13.0,96,0.00,,,0.12,0,Wunderground v.1.15,2013-03-16 04:45:00,
2013-03-15 18:50:00,70.3,69.1,29.94,NNW,344,8.0,8.0,96,0.00,,,0.12,0,Wunderground v.1.15,2013-03-16 04:50:00,
2013-03-15 19:00:00,70.1,68.9,29.94,NNE,14,6.0,7.0,96,0.00,,,0.12,0,Wunderground v.1.15,2013-03-16 05:00:00,
2013-03-15 19:10:00,70.2,69.0,29.94,NNW,348,9.0,15.0,96,0.00,,,0.12,0,Wunderground v.1.15,2013-03-16 05:10:00,
2013-03-15 19:15:00,70.3,69.1,29.94,North,5,8.0,15.0,96,0.00,,,0.12,0,Wunderground v.1.15,2013-03-16 05:15:00,
2013-03-15 19:20:00,70.4,69.2,29.95,NNE,26,7.0,9.0,96,0.00,,,0.12,0,Wunderground v.1.15,2013-03-16 05:20:00,
2013-03-15 19:25:00,70.5,69.0,29.95,North,9,7.0,9.0,95,0.00,,,0.12,0,Wunderground v.1.15,2013-03-16 05:25:00,
2013-03-15 19:30:00,70.5,69.0,29.95,North,350,7.0,7.0,95,0.00,,,0.12,0,Wunderground v.1.15,2013-03-16 05:30:00,
2013-03-15 19:35:00,70.5,69.0,29.95,North,355,5.0,7.0,95,0.00,,,0.12,0,Wunderground v.1.15,2013-03-16 05:35:00,
2013-03-15 19:40:00,70.4,68.9,29.95,North,355,5.0,5.0,95,0.00,,,0.12,0,Wunderground v.1.15,2013-03-16 05:40:00,
2013-03-15 19:45:00,70.4,68.9,29.96,North,5,6.0,8.0,95,0.00,,,0.12,0,Wunderground v.1.15,2013-03-16 05:45:00,
2013-03-15 19:50:00,70.5,69.0,29.96,NNE,12,6.0,6.0,95,0.00,,,0.12,0,Wunderground v.1.15,2013-03-16 05:50:00,
2013-03-15 19:55:00,70.5,68.7,29.96,North,5,4.0,6.0,94,0.00,,,0.12,0,Wunderground v.1.15,2013-03-16 05:55:00,
2013-03-15 20:00:00,70.5,68.7,29.97,NNW,345,5.0,5.0,94,0.00,,,0.12,0,Wunderground v.1.15,2013-03-16 06:00:00,
2013-03-15 20:10:00,70.7,68.6,29.97,North,355,4.0,4.0,93,0.00,,,0.12,0,Wunderground v.1.15,2013-03-16 06:10:00,
2013-03-15 20:15:00,70.6,68.5,29.97,North,355,1.0,4.0,93,0.00,,,0.12,0,Wunderground v.1.15,2013-03-16 06:15:00,
2013-03-15 20:25:00,70.5,68.1,29.97,North,349,3.0,4.0,92,0.00,,,0.12,0,Wunderground v.1.15,2013-03-16 06:25:00,
2013-03-15 20:30:00,70.6,68.2,29.98,NNW,346,3.0,4.0,92,0.00,,,0.12,0,Wunderground v.1.15,2013-03-16 06:30:00,
2013-03-15 20:35:00,70.6,67.8,29.98,North,350,3.0,4.0,91,0.00,,,0.12,0,Wunderground v.1.15,2013-03-16 06:35:00,
2013-03-15 20:40:00,70.6,67.8,29.98,North,350,2.0,3.0,91,0.00,,,0.12,0,Wunderground v.1.15,2013-03-16 06:40:00,
2013-03-15 20:45:00,70.6,67.8,29.98,North,350,1.0,4.0,91,0.00,,,0.12,0,Wunderground v.1.15,2013-03-16 06:45:00,
2013-03-15 20:50:00,70.7,67.6,29.98,North,350,1.0,1.0,90,0.00,,,0.12,0,Wunderground v.1.15,2013-03-16 06:50:00,
2013-03-15 20:55:00,70.7,67.6,29.99,North,349,0.0,1.0,90,0.00,,,0.12,0,Wunderground v.1.15,2013-03-16 06:55:00,
2013-03-15 21:00:00,70.9,67.8,29.99,North,349,1.0,1.0,90,0.00,,,0.12,0,Wunderground v.1.15,2013-03-16 07:00:00,
2013-03-15 21:10:00,71.1,67.7,29.99,North,350,1.0,1.0,89,0.00,,,0.12,0,Wunderground v.1.15,2013-03-16 07:10:00,
2013-03-15 21:15:00,71.0,67.6,29.99,North,350,0.0,1.0,89,0.00,,,0.12,0,Wunderground v.1.15,2013-03-16 07:15:00,
2013-03-15 21:25:00,70.3,67.5,29.99,North,350,0.0,0.0,91,0.00,,,0.12,0,Wunderground v.1.15,2013-03-16 07:25:00,
2013-03-15 21:30:00,69.9,67.5,29.99,North,350,0.0,0.0,92,0.00,,,0.12,0,Wunderground v.1.15,2013-03-16 07:30:00,
2013-03-15 21:35:00,69.4,67.3,30.00,North,350,0.0,1.0,93,0.00,,,0.12,0,Wunderground v.1.15,2013-03-16 07:35:00,
2013-03-15 21:40:00,68.9,67.1,30.00,North,350,1.0,1.0,94,0.00,,,0.12,0,Wunderground v.1.15,2013-03-16 07:40:00,
2013-03-15 21:45:00,68.7,66.9,30.00,North,350,0.0,1.0,94,0.00,,,0.12,0,Wunderground v.1.15,2013-03-16 07:45:00,
2013-03-15 21:50:00,68.6,66.8,30.00,North,350,0.0,0.0,94,0.00,,,0.12,0,Wunderground v.1.15,2013-03-16 07:50:00,
2013-03-15 21:55:00,68.5,67.0,30.01,North,350,0.0,0.0,95,0.00,,,0.12,0,Wunderground v.1.15,2013-03-16 07:55:00,
2013-03-15 22:00:00,68.2,66.7,30.00,North,350,1.0,1.0,95,0.00,,,0.12,0,Wunderground v.1.15,2013-03-16 08:00:00,
2013-03-15 22:10:00,67.7,66.5,30.00,North,349,2.0,2.0,96,0.00,,,0.12,0,Wunderground v.1.15,2013-03-16 08:10:00,
2013-03-15 22:15:00,67.5,66.3,30.00,North,349,2.0,2.0,96,0.00,,,0.12,0,Wunderground v.1.15,2013-03-16 08:15:00,
2013-03-15 22:20:00,67.2,66.0,30.00,North,349,2.0,2.0,96,0.00,,,0.12,0,Wunderground v.1.15,2013-03-16 08:20:00,
2013-03-15 22:25:00,66.9,66.0,30.00,North,349,2.0,2.0,97,0.00,,,0.12,0,Wunderground v.1.15,2013-03-16 08:25:00,
2013-03-15 22:35:00,66.7,65.8,30.00,North,349,0.0,1.0,97,0.00,,,0.12,0,Wunderground v.1.15,2013-03-16 08:35:00,
2013-03-15 22:40:00,66.7,65.8,30.00,North,349,0.0,0.0,97,0.00,,,0.12,0,Wunderground v.1.15,2013-03-16 08:40:00,
2013-03-15 22:45:00,66.6,65.7,30.00,North,349,0.0,0.0,97,0.00,,,0.12,0,Wunderground v.1.15,2013-03-16 08:45:00,
2013-03-15 22:50:00,66.4,65.5,30.00,North,349,0.0,0.0,97,0.00,,,0.12,0,Wunderground v.1.15,2013-03-16 08:50:00,
2013-03-15 22:55:00,66.2,65.3,30.00,North,349,0.0,2.0,97,0.00,,,0.12,0,Wunderground v.1.15,2013-03-16 08:55:00,
2013-03-15 23:00:00,65.9,65.3,30.00,North,349,1.0,3.0,98,0.00,,,0.12,0,Wunderground v.1.15,2013-03-16 09:00:00,
2013-03-15 23:10:00,65.9,65.3,30.00,North,349,1.0,4.0,98,0.00,,,0.12,0,Wunderground v.1.15,2013-03-16 09:10:00,
2013-03-15 23:15:00,66.2,65.9,30.00,North,349,2.0,4.0,99,0.00,,,0.12,0,Wunderground v.1.15,2013-03-16 09:15:00,
2013-03-15 23:20:00,66.4,65.8,30.00,North,349,1.0,1.0,98,0.00,,,0.12,0,Wunderground v.1.15,2013-03-16 09:20:00,
2013-03-15 23:25:00,66.6,66.0,30.00,North,349,0.0,1.0,98,0.00,,,0.12,0,Wunderground v.1.15,2013-03-16 09:25:00,
2013-03-15 23:30:00,66.6,66.0,29.99,North,349,0.0,0.0,98,0.00,,,0.12,0,Wunderground v.1.15,2013-03-16 09:30:00,
2013-03-15 23:40:00,66.8,66.2,29.99,North,349,0.0,0.0,98,0.00,,,0.12,0,Wunderground v.1.15,2013-03-16 09:40:00,
2013-03-15 23:45:00,66.8,66.2,29.99,North,349,0.0,0.0,98,0.00,,,0.12,0,Wunderground v.1.15,2013-03-16 09:45:00,
2013-03-15 23:55:00,67.0,66.4,29.99,North,349,1.0,3.0,98,0.00,,,0.00,0,Wunderground v.1.15,2013-03-16 09:55:00,